Time;durP1;ratioP1;P1;durP2;ratioP2;P2;SDS_P1;SDS_P2;PMS_P1;PMS_P2;Temp;Humidity;BMP_temperature;BMP_pressure;BME280_temperature;BME280_humidity;BME280_pressure;Samples;Min_cycle;Max_cycle;Signal;HPM_P1;HPM_P2
2022/04/30 00:00:16;;;;;;;16.20;14.20;;;;;20.30;101604.00;;;;2070532;28;20210;-46
2022/04/30 00:01:16;;;;;;;18.17;14.18;;;;;20.30;101612.00;;;;2070395;28;20206;-49
2022/04/30 00:02:17;;;;;;;23.60;19.93;;;;;20.20;101618.00;;;;2072163;28;20643;-47
2022/04/30 00:03:17;;;;;;;19.00;15.73;;;;;20.30;101614.00;;;;2071672;28;20806;-47
2022/04/30 00:04:17;;;;;;;15.60;13.67;;;;;20.30;101609.00;;;;2071726;28;20254;-47
2022/04/30 00:05:18;;;;;;;15.43;13.67;;;;;20.30;101608.00;;;;2078413;28;20237;-48
2022/04/30 00:06:18;;;;;;;15.60;14.00;;;;;20.20;101608.00;;;;2079302;28;20351;-47
2022/04/30 00:07:19;;;;;;;15.00;13.40;;;;;20.20;101617.00;;;;2080169;28;20296;-48
2022/04/30 00:08:20;;;;;;;15.00;13.40;;;;;20.20;101609.00;;;;2074411;28;20289;-46
2022/04/30 00:09:20;;;;;;;16.20;14.10;;;;;20.20;101602.00;;;;2071961;28;20534;-47
2022/04/30 00:10:20;;;;;;;14.80;12.90;;;;;20.20;101606.00;;;;2071669;28;20221;-47
2022/04/30 00:11:21;;;;;;;15.13;13.53;;;;;20.20;101600.00;;;;2071743;28;20206;-47
2022/04/30 00:12:23;;;;;;;17.13;12.23;;;;;20.20;101609.00;;;;2071802;28;20310;-46
2022/04/30 00:13:24;;;;;;;14.13;12.07;;;;;20.20;101605.00;;;;2071827;28;20218;-46
2022/04/30 00:14:24;;;;;;;17.33;15.13;;;;;20.20;101612.00;;;;2071732;28;20206;-47
2022/04/30 00:15:25;;;;;;;16.13;13.33;;;;;20.20;101607.00;;;;2071021;28;20217;-48
2022/04/30 00:16:25;;;;;;;14.33;12.83;;;;;20.20;101603.00;;;;2071897;28;20237;-47
2022/04/30 00:17:25;;;;;;;15.60;14.00;;;;;20.20;101608.00;;;;2069562;28;20563;-53
2022/04/30 00:18:26;;;;;;;14.27;12.77;;;;;20.20;101603.00;;;;2075369;28;20613;-48
2022/04/30 00:19:27;;;;;;;13.10;11.63;;;;;20.20;101600.00;;;;2080051;28;20217;-47
2022/04/30 00:20:27;;;;;;;13.33;11.30;;;;;20.20;101597.00;;;;2079803;28;20218;-47
2022/04/30 00:21:27;;;;;;;11.77;10.57;;;;;20.20;101598.00;;;;2079999;28;20463;-47
2022/04/30 00:22:28;;;;;;;14.37;11.20;;;;;20.20;101606.00;;;;2079897;28;20237;-47
2022/04/30 00:23:28;;;;;;;12.47;11.20;;;;;20.20;101598.00;;;;2080001;28;20205;-47
2022/04/30 00:24:28;;;;;;;13.60;11.23;;;;;20.20;101605.00;;;;2079807;28;20210;-47
2022/04/30 00:25:29;;;;;;;14.13;12.63;;;;;20.20;101604.00;;;;2075967;28;20279;-47
2022/04/30 00:26:29;;;;;;;11.90;10.70;;;;;20.20;101601.00;;;;2078747;28;20210;-47
2022/04/30 00:27:31;;;;;;;11.93;10.80;;;;;20.20;101614.00;;;;2079661;28;20241;-47
2022/04/30 00:28:31;;;;;;;11.23;10.13;;;;;20.20;101607.00;;;;2079617;28;20270;-46
2022/04/30 00:29:32;;;;;;;11.43;10.17;;;;;20.20;101601.00;;;;2079919;28;20869;-49
2022/04/30 00:30:32;;;;;;;13.17;11.80;;;;;20.20;101598.00;;;;2079756;28;20225;-47
2022/04/30 00:31:34;;;;;;;11.23;10.03;;;;;20.20;101595.00;;;;2079673;28;20217;-47
2022/04/30 00:32:34;;;;;;;12.82;11.23;;;;;20.20;101592.00;;;;2074455;28;20218;-47
2022/04/30 00:33:35;;;;;;;10.73;9.63;;;;;20.20;101600.00;;;;2071816;28;20226;-47
2022/04/30 00:34:35;;;;;;;12.43;10.00;;;;;20.20;101604.00;;;;2074231;28;20304;-46
2022/04/30 00:35:36;;;;;;;10.57;9.47;;;;;20.20;101599.00;;;;2078295;28;20217;-46
2022/04/30 00:36:37;;;;;;;11.82;10.65;;;;;20.20;101597.00;;;;2079883;28;20241;-47
2022/04/30 00:37:37;;;;;;;12.93;11.40;;;;;20.20;101589.00;;;;2079515;28;20344;-47
2022/04/30 00:38:37;;;;;;;11.83;10.60;;;;;20.20;101595.00;;;;2079147;28;20209;-47
2022/04/30 00:39:38;;;;;;;11.27;10.07;;;;;20.10;101582.00;;;;2079239;28;20361;-47
2022/04/30 00:40:38;;;;;;;13.20;10.80;;;;;20.20;101588.00;;;;2070393;28;20206;-48
2022/04/30 00:41:42;;;;;;;10.27;8.87;;;;;20.20;101587.00;;;;2071109;28;20210;-47
2022/04/30 00:42:43;;;;;;;10.90;9.75;;;;;20.10;101594.00;;;;2071782;28;20698;-46
2022/04/30 00:43:44;;;;;;;10.73;9.60;;;;;20.20;101586.00;;;;2071719;28;20257;-46
2022/04/30 00:44:47;;;;;;;11.23;10.05;;;;;20.10;101577.00;;;;2071241;28;20218;-47
2022/04/30 00:45:47;;;;;;;9.10;8.18;;;;;20.10;101586.00;;;;2077318;28;20221;-47
2022/04/30 00:46:48;;;;;;;8.90;8.00;;;;;20.10;101585.00;;;;2079642;28;20303;-47
2022/04/30 00:47:48;;;;;;;9.57;8.67;;;;;20.10;101574.00;;;;2079544;28;20344;-47
2022/04/30 00:48:49;;;;;;;12.13;8.43;;;;;20.10;101577.00;;;;2079573;28;20237;-47
2022/04/30 00:49:50;;;;;;;9.03;8.13;;;;;20.10;101581.00;;;;2079376;28;20228;-46
2022/04/30 00:50:50;;;;;;;9.93;8.70;;;;;20.10;101584.00;;;;2078458;28;20444;-47
2022/04/30 00:51:51;;;;;;;10.17;9.17;;;;;20.10;101578.00;;;;2070534;28;20221;-47
2022/04/30 00:52:51;;;;;;;10.07;9.07;;;;;20.10;101579.00;;;;2062872;28;20217;-47
2022/04/30 00:53:52;;;;;;;10.80;9.10;;;;;20.10;101582.00;;;;2079042;28;20225;-47
2022/04/30 00:54:58;;;;;;;10.60;9.43;;;;;20.20;101578.00;;;;2079536;28;20732;-46
2022/04/30 00:55:59;;;;;;;9.70;7.65;;;;;20.10;101584.00;;;;2076932;28;20216;-47
2022/04/30 00:57:00;;;;;;;9.83;8.93;;;;;20.10;101586.00;;;;2070714;28;20294;-47
2022/04/30 00:58:01;;;;;;;9.60;8.40;;;;;20.10;101586.00;;;;2070611;28;20595;-47
2022/04/30 00:59:03;;;;;;;8.40;7.55;;;;;20.10;101583.00;;;;2070807;28;20237;-47
2022/04/30 01:00:05;;;;;;;10.43;8.32;;;;;20.10;101582.00;;;;2071383;28;20306;-47
2022/04/30 01:01:05;;;;;;;9.80;8.25;;;;;20.10;101587.00;;;;2074185;28;20300;-47
2022/04/30 01:02:08;;;;;;;8.03;7.17;;;;;20.10;101589.00;;;;2078625;28;20213;-47
2022/04/30 01:03:09;;;;;;;8.60;7.80;;;;;20.10;101589.00;;;;2079655;28;20714;-47
2022/04/30 01:04:09;;;;;;;9.03;7.33;;;;;20.10;101583.00;;;;2079346;28;20232;-47
2022/04/30 01:05:10;;;;;;;8.07;7.30;;;;;20.10;101595.00;;;;2079181;28;20674;-47
2022/04/30 01:06:12;;;;;;;9.20;7.60;;;;;20.10;101595.00;;;;2078332;28;20674;-47
2022/04/30 01:07:13;;;;;;;8.65;7.10;;;;;20.10;101592.00;;;;2079341;28;20555;-47
2022/04/30 01:08:13;;;;;;;8.13;7.37;;;;;20.10;101592.00;;;;2070760;28;20756;-46
2022/04/30 01:09:14;;;;;;;7.23;6.53;;;;;20.10;101592.00;;;;2070538;28;20198;-46
2022/04/30 01:10:14;;;;;;;7.20;6.50;;;;;20.10;101589.00;;;;2079307;28;20197;-47
2022/04/30 01:11:15;;;;;;;7.27;6.57;;;;;20.10;101582.00;;;;2079628;28;20498;-47
2022/04/30 01:12:15;;;;;;;7.40;6.60;;;;;20.10;101592.00;;;;2070689;28;20206;-47
2022/04/30 01:13:16;;;;;;;7.03;6.43;;;;;20.10;101595.00;;;;2070573;28;20206;-47
2022/04/30 01:14:17;;;;;;;7.30;6.60;;;;;20.00;101587.00;;;;2070364;28;20695;-47
2022/04/30 01:15:18;;;;;;;7.37;6.63;;;;;20.10;101593.00;;;;2069283;28;20218;-47
2022/04/30 01:16:18;;;;;;;7.23;6.50;;;;;20.10;101594.00;;;;2064374;28;20242;-47
2022/04/30 01:17:19;;;;;;;7.20;6.60;;;;;20.00;101588.00;;;;2056055;28;20207;-47
2022/04/30 01:18:19;;;;;;;7.43;6.70;;;;;20.10;101583.00;;;;2046555;28;20220;-48
2022/04/30 01:19:20;;;;;;;8.50;7.33;;;;;20.00;101592.00;;;;2062662;28;20226;-47
2022/04/30 01:20:21;;;;;;;7.93;6.93;;;;;20.00;101584.00;;;;2072930;28;20228;-47
2022/04/30 01:21:21;;;;;;;8.03;7.07;;;;;20.10;101590.00;;;;2074302;28;20202;-48
2022/04/30 01:22:21;;;;;;;7.27;6.63;;;;;20.10;101591.00;;;;2078682;28;20264;-47
2022/04/30 01:23:22;;;;;;;7.53;6.60;;;;;20.00;101575.00;;;;2078711;28;20214;-47
2022/04/30 01:24:23;;;;;;;7.33;6.50;;;;;20.00;101584.00;;;;2078335;28;20317;-47
2022/04/30 01:25:24;;;;;;;7.05;6.35;;;;;20.00;101585.00;;;;2077884;28;20837;-47
2022/04/30 01:26:26;;;;;;;6.87;6.27;;;;;20.00;101582.00;;;;2078671;28;20221;-47
2022/04/30 01:27:27;;;;;;;6.85;5.90;;;;;20.00;101585.00;;;;2070685;28;20222;-47
2022/04/30 01:28:28;;;;;;;6.53;5.60;;;;;20.00;101583.00;;;;2077143;28;20241;-47
2022/04/30 01:29:33;;;;;;;6.60;5.90;;;;;20.00;101579.00;;;;2079226;28;20848;-47
2022/04/30 01:30:33;;;;;;;6.78;5.82;;;;;20.00;101580.00;;;;2078935;28;20476;-48
2022/04/30 01:38:07;;;;;;;6.80;6.20;;;;;20.00;101582.00;;;;2078305;28;20213;-48
2022/04/30 01:39:08;;;;;;;6.73;5.57;;;;;20.00;101501.00;;;;2078696;28;20217;-47
2022/04/30 01:40:11;;;;;;;6.00;5.13;;;;;20.00;101571.00;;;;2078548;28;20644;-47
2022/04/30 01:41:12;;;;;;;6.50;5.78;;;;;20.00;101573.00;;;;2078655;28;20404;-48
2022/04/30 01:42:12;;;;;;;6.00;5.20;;;;;20.00;101571.00;;;;2078695;28;20697;-46
2022/04/30 01:43:12;;;;;;;6.80;6.10;;;;;20.00;101571.00;;;;2077961;28;20839;-47
2022/04/30 01:44:13;;;;;;;6.03;5.47;;;;;20.00;101564.00;;;;2069319;28;20225;-47
2022/04/30 01:45:14;;;;;;;6.03;5.50;;;;;20.00;101561.00;;;;2077551;28;20222;-47
2022/04/30 01:46:14;;;;;;;6.93;5.35;;;;;20.00;101560.00;;;;2077186;28;20631;-47
2022/04/30 01:47:15;;;;;;;6.90;6.20;;;;;20.00;101554.00;;;;2078186;28;20251;-46
2022/04/30 01:48:15;;;;;;;5.00;4.50;;;;;20.00;101557.00;;;;2078447;28;20217;-47
2022/04/30 01:49:18;;;;;;;6.77;5.47;;;;;20.00;101566.00;;;;2069907;28;20590;-47
2022/04/30 01:50:18;;;;;;;5.40;4.90;;;;;20.00;101567.00;;;;2070272;28;20218;-47
2022/04/30 01:51:20;;;;;;;5.50;4.97;;;;;20.00;101573.00;;;;2079021;28;20210;-47
2022/04/30 01:52:20;;;;;;;5.10;4.57;;;;;20.00;101559.00;;;;2079150;28;20260;-47
2022/04/30 01:53:21;;;;;;;5.70;5.20;;;;;20.00;101559.00;;;;2079213;28;20736;-48
2022/04/30 01:54:21;;;;;;;5.70;5.10;;;;;20.00;101557.00;;;;2076511;28;20212;-47
2022/04/30 01:55:21;;;;;;;6.33;5.10;;;;;20.00;101562.00;;;;2078582;28;20201;-47
2022/04/30 01:56:22;;;;;;;4.83;4.33;;;;;20.00;101552.00;;;;2078859;28;20247;-47
2022/04/30 01:57:23;;;;;;;5.37;4.70;;;;;20.00;101558.00;;;;2078906;28;20279;-47
2022/04/30 01:58:23;;;;;;;6.07;4.93;;;;;20.00;101554.00;;;;2079063;28;20224;-47
2022/04/30 01:59:23;;;;;;;5.40;4.60;;;;;20.00;101559.00;;;;2078911;28;20234;-47
2022/04/30 02:00:26;;;;;;;5.37;4.87;;;;;20.00;101546.00;;;;2079080;28;20260;-47
2022/04/30 02:01:26;;;;;;;5.00;4.60;;;;;20.00;101554.00;;;;2078820;28;20302;-47
2022/04/30 02:02:28;;;;;;;5.30;4.80;;;;;20.00;101565.00;;;;2079056;28;20643;-47
2022/04/30 02:03:28;;;;;;;4.90;4.40;;;;;20.00;101554.00;;;;2079186;28;20222;-47
2022/04/30 02:04:28;;;;;;;5.57;4.30;;;;;19.90;101551.00;;;;2078248;28;20229;-47
2022/04/30 02:05:29;;;;;;;5.13;4.67;;;;;19.90;101551.00;;;;2077677;28;20225;-46
2022/04/30 02:06:30;;;;;;;4.73;4.33;;;;;19.90;101547.00;;;;2078258;28;20648;-47
2022/04/30 02:07:31;;;;;;;4.97;4.00;;;;;20.00;101545.00;;;;2077834;28;20214;-47
2022/04/30 02:08:33;;;;;;;5.77;4.43;;;;;19.90;101550.00;;;;2078503;28;20487;-47
2022/04/30 02:09:33;;;;;;;5.28;4.78;;;;;20.00;101547.00;;;;2078386;28;20976;-46
2022/04/30 02:10:38;;;;;;;4.93;4.40;;;;;20.00;101546.00;;;;2078293;28;20221;-47
2022/04/30 02:11:38;;;;;;;4.88;4.38;;;;;19.90;101545.00;;;;2070565;28;20222;-47
2022/04/30 02:12:39;;;;;;;5.20;4.70;;;;;20.00;101543.00;;;;2070162;28;20259;-47
2022/04/30 02:13:40;;;;;;;4.40;4.00;;;;;19.90;101543.00;;;;2070193;28;20222;-47
2022/04/30 02:14:41;;;;;;;4.60;4.20;;;;;19.90;101545.00;;;;2069981;28;20575;-47
2022/04/30 02:15:41;;;;;;;4.87;4.27;;;;;19.90;101532.00;;;;2058612;28;20267;-46
2022/04/30 02:16:42;;;;;;;4.40;4.00;;;;;19.90;101544.00;;;;2054128;28;20587;-46
2022/04/30 02:17:42;;;;;;;4.53;4.03;;;;;19.90;101541.00;;;;2070087;28;20307;-47
2022/04/30 02:18:42;;;;;;;4.83;3.87;;;;;19.90;101536.00;;;;2072817;28;20295;-46
2022/04/30 02:21:02;;;;;;;4.10;3.70;;;;;19.90;101528.00;;;;2069272;28;20713;-46
2022/04/30 02:22:02;;;;;;;4.83;4.33;;;;;19.90;101531.00;;;;2070087;28;20218;-46
2022/04/30 02:23:05;;;;;;;3.83;3.40;;;;;19.90;101531.00;;;;2070186;28;20726;-46
2022/04/30 02:24:07;;;;;;;4.30;3.90;;;;;19.90;101528.00;;;;2076720;28;20221;-48
2022/04/30 02:25:11;;;;;;;3.80;3.50;;;;;19.90;101529.00;;;;2078135;28;20728;-47
2022/04/30 02:26:11;;;;;;;4.28;3.88;;;;;19.90;101522.00;;;;2072549;28;20603;-47
2022/04/30 02:27:12;;;;;;;3.73;3.40;;;;;19.90;101533.00;;;;2069872;28;20261;-47
2022/04/30 02:28:12;;;;;;;5.50;3.20;;;;;19.90;101526.00;;;;2069300;28;20222;-50
2022/04/30 02:29:13;;;;;;;3.87;3.57;;;;;19.90;101534.00;;;;2069742;28;20990;-47
2022/04/30 02:30:14;;;;;;;7.47;3.70;;;;;19.90;101534.00;;;;2070619;28;20698;-47
2022/04/30 02:31:22;;;;;;;3.60;3.30;;;;;19.90;101520.00;;;;2069301;28;20635;-47
2022/04/30 02:32:22;;;;;;;3.53;3.22;;;;;19.90;101533.00;;;;2070475;28;20208;-46
2022/04/30 02:33:22;;;;;;;3.70;3.40;;;;;19.90;101526.00;;;;2070710;28;20224;-46
2022/04/30 02:34:23;;;;;;;4.20;3.23;;;;;19.90;101528.00;;;;2070457;28;20210;-47
2022/04/30 02:35:24;;;;;;;3.50;3.20;;;;;19.90;101530.00;;;;2070091;28;20373;-47
2022/04/30 02:36:28;;;;;;;3.95;3.30;;;;;19.90;101530.00;;;;2069871;28;20210;-47
2022/04/30 02:37:28;;;;;;;3.92;3.42;;;;;19.90;101533.00;;;;2069996;28;20293;-47
2022/04/30 02:38:29;;;;;;;4.93;3.73;;;;;19.90;101523.00;;;;2070815;28;20260;-47
2022/04/30 02:39:30;;;;;;;3.60;3.30;;;;;19.90;101522.00;;;;2070960;28;20293;-47
2022/04/30 02:40:33;;;;;;;3.70;3.13;;;;;19.90;101540.00;;;;2076266;28;20217;-48
2022/04/30 02:41:35;;;;;;;5.30;3.50;;;;;19.90;101528.00;;;;2078851;28;20292;-47
2022/04/30 02:42:35;;;;;;;3.35;3.05;;;;;19.90;101533.00;;;;2074252;28;20218;-47
2022/04/30 02:43:38;;;;;;;3.50;3.20;;;;;19.90;101524.00;;;;2070891;28;20218;-46
2022/04/30 02:44:38;;;;;;;3.90;3.30;;;;;19.90;101528.00;;;;2070511;28;20395;-47
2022/04/30 02:45:39;;;;;;;3.17;2.87;;;;;19.90;101532.00;;;;2069921;28;20582;-47
2022/04/30 02:46:39;;;;;;;5.00;3.40;;;;;19.90;101527.00;;;;2070536;28;20705;-47
2022/04/30 02:47:41;;;;;;;4.43;3.80;;;;;19.90;101526.00;;;;2070138;28;20458;-47
2022/04/30 02:48:42;;;;;;;3.65;3.33;;;;;19.90;101528.00;;;;2070635;28;20214;-47
2022/04/30 02:49:42;;;;;;;3.93;3.50;;;;;19.90;101530.00;;;;2070696;28;20585;-47
2022/04/30 02:50:43;;;;;;;4.17;3.33;;;;;19.90;101530.00;;;;2070210;28;20210;-47
2022/04/30 02:51:43;;;;;;;4.10;3.63;;;;;19.90;101525.00;;;;2070503;28;20635;-46
2022/04/30 02:52:44;;;;;;;5.33;3.57;;;;;19.90;101518.00;;;;2070720;28;20217;-47
2022/04/30 02:53:44;;;;;;;3.33;3.03;;;;;19.90;101523.00;;;;2070492;28;20206;-48
2022/04/30 02:54:45;;;;;;;4.83;2.83;;;;;19.80;101525.00;;;;2070495;28;20702;-47
2022/04/30 02:55:45;;;;;;;4.80;3.50;;;;;19.90;101517.00;;;;2069686;28;20210;-47
2022/04/30 02:56:45;;;;;;;3.43;3.13;;;;;19.90;101524.00;;;;2070386;28;20237;-47
2022/04/30 03:00:28;;;;;;;3.97;3.10;;;;;19.90;101517.00;;;;2070163;28;20265;-47
2022/04/30 03:01:28;;;;;;;3.20;2.90;;;;;19.80;101519.00;;;;2074472;28;20210;-47
2022/04/30 03:02:29;;;;;;;3.37;3.07;;;;;19.80;101526.00;;;;2078735;28;20237;-47
2022/04/30 03:03:29;;;;;;;3.40;3.10;;;;;19.90;101514.00;;;;2078647;28;20237;-46
2022/04/30 03:04:29;;;;;;;3.67;3.30;;;;;19.80;101510.00;;;;2078392;28;20226;-47
2022/04/30 03:05:30;;;;;;;3.77;3.30;;;;;19.80;101520.00;;;;2077819;28;20220;-47
2022/04/30 03:06:32;;;;;;;4.05;3.45;;;;;19.90;101517.00;;;;2077589;28;20220;-47
2022/04/30 03:07:33;;;;;;;3.55;3.25;;;;;19.80;101517.00;;;;2069447;28;20226;-48
2022/04/30 03:08:33;;;;;;;3.50;2.80;;;;;19.90;101523.00;;;;2069960;28;20218;-47
2022/04/30 03:09:34;;;;;;;4.43;3.40;;;;;19.80;101523.00;;;;2078679;28;20218;-47
2022/04/30 03:10:34;;;;;;;3.20;2.70;;;;;19.80;101529.00;;;;2078070;28;20239;-46
2022/04/30 03:11:35;;;;;;;3.50;3.07;;;;;19.80;101517.00;;;;2077637;28;20221;-47
2022/04/30 03:12:36;;;;;;;3.93;3.50;;;;;19.80;101521.00;;;;2078691;28;20632;-47
2022/04/30 03:13:36;;;;;;;3.50;3.20;;;;;19.80;101518.00;;;;2078530;28;20271;-47
2022/04/30 03:14:36;;;;;;;3.63;3.33;;;;;19.80;101516.00;;;;2078675;28;20229;-47
2022/04/30 03:15:39;;;;;;;3.37;3.00;;;;;19.80;101524.00;;;;2078017;28;20245;-47
2022/04/30 03:21:54;;;;;;;3.80;3.40;;;;;19.80;101516.00;;;;2081512;28;20209;-46
2022/04/30 03:22:55;;;;;;;3.90;3.03;;;;;19.80;101519.00;;;;2077342;28;20213;-47
2022/04/30 03:23:55;;;;;;;2.90;2.63;;;;;19.80;101513.00;;;;2077871;28;20214;-47
2022/04/30 03:24:55;;;;;;;3.40;2.80;;;;;19.80;101523.00;;;;2078462;28;20252;-47
2022/04/30 03:25:56;;;;;;;3.70;3.10;;;;;19.80;101519.00;;;;2072030;28;20645;-47
2022/04/30 03:26:56;;;;;;;3.70;3.40;;;;;19.80;101522.00;;;;2070487;28;20654;-47
2022/04/30 03:27:56;;;;;;;3.80;2.93;;;;;19.80;101518.00;;;;2070352;28;20990;-48
2022/04/30 03:28:57;;;;;;;3.73;3.20;;;;;19.80;101517.00;;;;2070532;28;20722;-47
2022/04/30 03:29:58;;;;;;;3.17;2.87;;;;;19.80;101521.00;;;;2070498;28;21098;-47
2022/04/30 03:30:58;;;;;;;3.00;2.70;;;;;19.80;101513.00;;;;2070571;28;20574;-47
2022/04/30 03:31:59;;;;;;;3.23;3.03;;;;;19.80;101522.00;;;;2070664;28;20265;-46
2022/04/30 03:32:59;;;;;;;3.17;2.87;;;;;19.80;101517.00;;;;2070503;28;20449;-46
2022/04/30 03:33:59;;;;;;;3.50;3.10;;;;;19.80;101516.00;;;;2070555;28;20245;-47
2022/04/30 03:35:00;;;;;;;3.37;2.80;;;;;19.80;101516.00;;;;2070207;28;20206;-47
2022/04/30 03:36:00;;;;;;;3.40;3.10;;;;;19.80;101513.00;;;;2069735;28;20818;-46
2022/04/30 03:37:00;;;;;;;3.53;3.23;;;;;19.80;101514.00;;;;2070119;28;20965;-47
2022/04/30 03:38:01;;;;;;;3.10;2.80;;;;;19.80;101511.00;;;;2070524;28;20202;-47
2022/04/30 03:39:05;;;;;;;3.27;2.97;;;;;19.80;101505.00;;;;2070643;28;20329;-47
2022/04/30 03:40:05;;;;;;;3.40;3.10;;;;;19.80;101506.00;;;;2070473;28;20261;-47
2022/04/30 03:41:06;;;;;;;3.87;3.00;;;;;19.80;101508.00;;;;2069459;28;20214;-47
2022/04/30 03:42:07;;;;;;;5.40;2.70;;;;;19.70;101505.00;;;;2069887;28;20733;-48
2022/04/30 03:43:07;;;;;;;3.30;3.00;;;;;19.80;101503.00;;;;2070624;28;20512;-48
2022/04/30 03:44:07;;;;;;;5.43;3.13;;;;;19.80;101506.00;;;;2069663;28;20233;-47
2022/04/30 03:45:08;;;;;;;3.47;3.07;;;;;19.80;101507.00;;;;2069663;28;20213;-47
2022/04/30 03:46:09;;;;;;;2.97;2.77;;;;;19.80;101510.00;;;;2069760;28;20214;-47
2022/04/30 03:47:09;;;;;;;3.40;3.03;;;;;19.80;101506.00;;;;2070452;28;20217;-47
2022/04/30 03:48:09;;;;;;;2.90;2.70;;;;;19.80;101507.00;;;;2070600;28;20560;-47
2022/04/30 03:49:10;;;;;;;3.60;3.07;;;;;19.80;101505.00;;;;2070199;28;20221;-47
2022/04/30 03:50:10;;;;;;;4.60;3.07;;;;;19.70;101506.00;;;;2070448;28;20206;-47
2022/04/30 03:51:10;;;;;;;3.00;2.77;;;;;19.70;101514.00;;;;2069989;28;20207;-46
2022/04/30 03:52:11;;;;;;;3.80;2.70;;;;;19.70;101514.00;;;;2070552;28;20271;-47
2022/04/30 03:53:12;;;;;;;3.58;2.65;;;;;19.80;101504.00;;;;2070436;28;20211;-47
2022/04/30 03:54:13;;;;;;;3.28;2.90;;;;;19.80;101507.00;;;;2070390;28;20368;-47
2022/04/30 03:55:16;;;;;;;3.27;2.97;;;;;19.70;101508.00;;;;2070399;28;20274;-48
2022/04/30 03:56:17;;;;;;;3.38;3.08;;;;;19.70;101510.00;;;;2069830;28;20229;-46
2022/04/30 03:57:17;;;;;;;3.30;3.00;;;;;19.70;101511.00;;;;2069368;28;20224;-47
2022/04/30 03:58:17;;;;;;;2.70;2.43;;;;;19.70;101504.00;;;;2069620;28;20663;-47
2022/04/30 03:59:18;;;;;;;4.50;2.87;;;;;19.70;101511.00;;;;2070509;28;20214;-47
2022/04/30 04:00:19;;;;;;;3.03;2.83;;;;;19.70;101507.00;;;;2070465;28;20274;-48
2022/04/30 04:01:19;;;;;;;3.03;2.73;;;;;19.70;101508.00;;;;2070304;28;20214;-47
2022/04/30 04:02:20;;;;;;;3.70;3.20;;;;;19.70;101510.00;;;;2070409;28;20214;-47
2022/04/30 04:03:21;;;;;;;2.70;2.50;;;;;19.70;101511.00;;;;2070225;28;20473;-47
2022/04/30 04:04:22;;;;;;;3.10;2.90;;;;;19.70;101503.00;;;;2069980;28;20245;-47
2022/04/30 04:05:22;;;;;;;3.70;2.42;;;;;19.70;101510.00;;;;2069009;28;20214;-47
2022/04/30 04:06:23;;;;;;;3.03;2.60;;;;;19.70;101507.00;;;;2069673;28;20284;-47
2022/04/30 04:07:23;;;;;;;2.80;2.60;;;;;19.70;101509.00;;;;2070248;28;20221;-47
2022/04/30 04:08:25;;;;;;;2.60;2.40;;;;;19.70;101511.00;;;;2068722;28;20234;-46
2022/04/30 04:09:25;;;;;;;2.83;2.63;;;;;19.70;101504.00;;;;2077861;28;20213;-46
2022/04/30 04:10:25;;;;;;;2.87;2.67;;;;;19.70;101513.00;;;;2078613;28;20221;-47
2022/04/30 04:11:26;;;;;;;3.27;2.97;;;;;19.70;101512.00;;;;2078493;28;20265;-47
2022/04/30 04:12:26;;;;;;;2.70;2.50;;;;;19.70;101513.00;;;;2078513;28;20210;-47
2022/04/30 04:17:38;;;;;;;2.80;2.60;;;;;19.70;101515.00;;;;2073457;28;20683;-47
2022/04/30 04:18:38;;;;;;;4.65;3.10;;;;;19.70;101517.00;;;;2077379;28;20592;-47
2022/04/30 04:19:39;;;;;;;2.93;2.60;;;;;19.70;101515.00;;;;2079819;28;20223;-47
2022/04/30 04:20:39;;;;;;;3.67;2.83;;;;;19.70;101516.00;;;;2079929;28;20217;-46
2022/04/30 04:21:39;;;;;;;3.83;2.90;;;;;19.70;101512.00;;;;2080081;28;20214;-46
2022/04/30 04:22:40;;;;;;;3.03;2.73;;;;;19.70;101512.00;;;;2079943;28;20220;-47
2022/04/30 04:26:17;;;;;;;2.88;2.55;;;;;19.70;101516.00;;;;2077475;28;20233;-47
2022/04/30 04:27:18;;;;;;;3.93;2.90;;;;;19.70;101514.00;;;;2071183;28;20222;-48
2022/04/30 04:28:19;;;;;;;3.57;2.60;;;;;19.70;101514.00;;;;2071008;28;20681;-47
2022/04/30 04:29:19;;;;;;;3.47;2.57;;;;;19.70;101509.00;;;;2071700;28;20449;-46
2022/04/30 04:30:21;;;;;;;3.20;2.77;;;;;19.70;101514.00;;;;2071400;28;20210;-47
2022/04/30 04:31:22;;;;;;;2.90;2.70;;;;;19.70;101528.00;;;;2071833;28;20619;-47
2022/04/30 04:32:24;;;;;;;2.83;2.30;;;;;19.70;101514.00;;;;2071765;28;20218;-46
2022/04/30 04:33:24;;;;;;;2.47;2.28;;;;;19.70;101517.00;;;;2070762;28;20288;-46
2022/04/30 04:34:25;;;;;;;4.13;3.10;;;;;19.70;101510.00;;;;2071615;28;20681;-46
2022/04/30 04:35:25;;;;;;;2.80;2.60;;;;;19.70;101511.00;;;;2070536;28;20211;-47
2022/04/30 04:36:26;;;;;;;3.60;3.30;;;;;19.70;101517.00;;;;2071634;28;20206;-47
2022/04/30 04:37:27;;;;;;;3.43;3.13;;;;;19.70;101518.00;;;;2071711;28;20619;-46
2022/04/30 04:38:30;;;;;;;3.40;3.10;;;;;19.70;101521.00;;;;2071503;28;20845;-47
2022/04/30 04:39:30;;;;;;;3.88;2.38;;;;;19.70;101520.00;;;;2070842;28;20218;-47
2022/04/30 04:40:30;;;;;;;2.83;2.50;;;;;19.70;101523.00;;;;2078854;28;20718;-47
2022/04/30 04:41:31;;;;;;;2.33;2.13;;;;;19.60;101516.00;;;;2078852;28;20700;-52
2022/04/30 04:42:31;;;;;;;2.53;2.33;;;;;19.70;101525.00;;;;2079035;28;20295;-51
2022/04/30 04:43:31;;;;;;;4.07;2.80;;;;;19.70;101520.00;;;;2079163;28;20216;-49
2022/04/30 04:44:32;;;;;;;3.00;2.47;;;;;19.60;101521.00;;;;2078651;28;20209;-48
2022/04/30 04:45:32;;;;;;;3.10;2.80;;;;;19.60;101519.00;;;;2078363;28;20229;-47
2022/04/30 04:46:32;;;;;;;3.47;2.67;;;;;19.70;101523.00;;;;2078908;28;20278;-46
2022/04/30 04:47:34;;;;;;;3.73;2.83;;;;;19.70;101521.00;;;;2078689;28;20218;-47
2022/04/30 04:48:34;;;;;;;3.35;2.30;;;;;19.70;101522.00;;;;2079708;28;20320;-47
2022/04/30 04:49:35;;;;;;;2.80;2.40;;;;;19.60;101520.00;;;;2079594;28;20260;-46
2022/04/30 04:50:35;;;;;;;2.97;2.50;;;;;19.60;101522.00;;;;2079133;28;20245;-47
2022/04/30 04:51:35;;;;;;;4.13;2.90;;;;;19.60;101527.00;;;;2078417;28;20221;-47
2022/04/30 04:52:36;;;;;;;3.23;2.93;;;;;19.70;101519.00;;;;2079528;28;20225;-47
2022/04/30 04:53:36;;;;;;;3.57;2.97;;;;;19.70;101525.00;;;;2079065;28;20224;-47
2022/04/30 04:54:36;;;;;;;3.70;2.50;;;;;19.60;101528.00;;;;2078920;28;20286;-47
2022/04/30 04:55:37;;;;;;;3.73;2.60;;;;;19.60;101519.00;;;;2078673;28;20881;-47
2022/04/30 04:56:38;;;;;;;3.03;2.60;;;;;19.60;101526.00;;;;2079575;28;20295;-47
2022/04/30 04:57:39;;;;;;;2.78;2.47;;;;;19.60;101522.00;;;;2079317;28;20694;-47
2022/04/30 04:58:42;;;;;;;4.03;2.50;;;;;19.60;101526.00;;;;2079530;28;20221;-48
2022/04/30 04:59:42;;;;;;;3.15;2.30;;;;;19.70;101537.00;;;;2079661;28;20214;-47
2022/04/30 05:00:43;;;;;;;6.60;3.00;;;;;19.60;101529.00;;;;2078415;28;20686;-47
2022/04/30 05:01:43;;;;;;;3.20;2.57;;;;;19.60;101523.00;;;;2078764;28;20232;-46
2022/04/30 05:02:43;;;;;;;3.33;2.93;;;;;19.60;101527.00;;;;2079622;28;20218;-46
2022/04/30 05:03:44;;;;;;;4.03;2.50;;;;;19.60;101528.00;;;;2079523;28;20241;-46
2022/04/30 05:04:44;;;;;;;2.67;2.47;;;;;19.70;101532.00;;;;2075822;28;20226;-46
2022/04/30 05:05:44;;;;;;;3.40;2.77;;;;;19.70;101534.00;;;;2070599;28;20240;-46
2022/04/30 05:06:45;;;;;;;3.10;2.80;;;;;19.70;101537.00;;;;2070408;28;20241;-46
2022/04/30 05:07:45;;;;;;;5.37;2.60;;;;;19.70;101526.00;;;;2069521;28;20264;-46
2022/04/30 05:08:46;;;;;;;2.90;2.40;;;;;19.70;101534.00;;;;2069156;28;20707;-47
2022/04/30 05:09:46;;;;;;;3.00;2.50;;;;;19.70;101539.00;;;;2070502;28;20691;-46
2022/04/30 05:10:47;;;;;;;5.30;3.47;;;;;19.70;101534.00;;;;2070714;28;20263;-46
2022/04/30 05:11:47;;;;;;;3.47;3.13;;;;;19.80;101536.00;;;;2070417;28;20714;-47
2022/04/30 05:12:47;;;;;;;4.10;2.93;;;;;19.80;101535.00;;;;2070932;28;20593;-47
2022/04/30 05:13:48;;;;;;;3.10;2.80;;;;;19.80;101536.00;;;;2075265;28;20706;-47
2022/04/30 05:14:48;;;;;;;6.73;3.60;;;;;19.70;101545.00;;;;2078229;28;20224;-46
2022/04/30 05:15:48;;;;;;;3.83;3.40;;;;;19.70;101542.00;;;;2070341;28;20225;-47
2022/04/30 05:16:49;;;;;;;3.43;3.13;;;;;19.60;101537.00;;;;2070256;28;20261;-47
2022/04/30 05:17:49;;;;;;;4.47;3.50;;;;;19.60;101537.00;;;;2070942;28;20229;-46
2022/04/30 05:18:50;;;;;;;5.20;3.97;;;;;19.60;101536.00;;;;2070757;28;20259;-47
2022/04/30 05:19:50;;;;;;;5.27;3.70;;;;;19.60;101544.00;;;;2070714;28;20214;-46
2022/04/30 05:20:50;;;;;;;6.20;3.53;;;;;19.60;101540.00;;;;2070971;28;20333;-47
2022/04/30 05:21:51;;;;;;;3.40;3.10;;;;;19.60;101540.00;;;;2070430;28;20202;-46